Cedar Pass, Utah
Current Conditions -  °F | °C
As of 6:48 PM on Saturday 25 Oct 2014 (Local Time) from KPVU Reporting Station
Broken Clouds Broken Clouds  
Wind Chill: 64°   Ceiling: 8000
Heat Index: 64°   Visibility: 15mi
Dew Point: 37°   Wind: 3mph
Humidity: 37%   Direction: 240°WSW
Pressure: 29.96"   Gusts: NA
Location:  40.3936°N, 111.846°W
Report Text: KPVU 260048Z 24003KT 15SM BKN080 18/03 A2996
Loading
Personal Weather Stations






























Interactive Weather Map
Tropical Storm Tracking
New forecast layout! Learn more

10-Day Weather Forecast

Advertisements
Track Severe Weather on mobile